createdAt,value
2019-01-14T00:01:02.431Z,30.80
2019-01-14T00:03:31.910Z,23.23
2019-01-14T00:06:01.418Z,23.60
2019-01-14T00:08:31.053Z,24.67
2019-01-14T00:11:00.426Z,23.67
2019-01-14T00:13:29.810Z,24.83
2019-01-14T00:15:59.255Z,29.97
2019-01-14T00:18:28.678Z,32.07
2019-01-14T00:20:58.452Z,23.47
2019-01-14T00:23:27.919Z,25.07
2019-01-14T00:25:57.419Z,28.63
2019-01-14T00:28:26.839Z,26.87
2019-01-14T00:30:56.226Z,29.77
2019-01-14T00:33:25.654Z,26.90
2019-01-14T00:35:55.030Z,31.37
2019-01-14T00:38:24.646Z,34.73
2019-01-14T00:40:54.074Z,30.10
2019-01-14T00:43:23.447Z,27.40
2019-01-14T00:45:53.041Z,28.63
2019-01-14T00:48:22.458Z,34.30
2019-01-14T00:50:52.013Z,36.80
2019-01-14T00:53:21.374Z,29.93
2019-01-14T00:55:50.770Z,27.80
2019-01-14T00:58:20.209Z,26.30
2019-01-14T01:00:49.756Z,35.90
2019-01-14T01:03:19.062Z,23.10
2019-01-14T01:05:48.459Z,24.30
2019-01-14T01:08:17.918Z,19.90
2019-01-14T01:10:47.369Z,19.50
2019-01-14T01:13:16.772Z,14.80
2019-01-14T01:15:46.252Z,18.63
2019-01-14T01:18:15.642Z,27.97
2019-01-14T01:20:45.274Z,18.07
2019-01-14T01:23:14.586Z,22.77
2019-01-14T01:25:44.021Z,17.53
2019-01-14T01:28:13.434Z,18.63
2019-01-14T01:30:42.836Z,20.57
2019-01-14T01:33:12.198Z,17.87
2019-01-14T01:35:41.793Z,20.60
2019-01-14T01:38:11.238Z,21.83
2019-01-14T01:40:40.634Z,20.00
2019-01-14T01:43:10.162Z,15.37
2019-01-14T01:45:40.106Z,23.13
2019-01-14T01:48:09.514Z,20.27
2019-01-14T01:50:38.819Z,17.67
2019-01-14T01:53:08.226Z,16.90
2019-01-14T01:55:37.837Z,20.87
2019-01-14T01:58:07.289Z,20.73
2019-01-14T02:00:36.687Z,25.83
2019-01-14T02:03:06.129Z,22.57
2019-01-14T02:05:35.497Z,18.90
2019-01-14T02:08:04.842Z,17.87
2019-01-14T02:10:34.289Z,16.77
2019-01-14T02:13:03.669Z,19.30
2019-01-14T02:15:33.122Z,14.00
2019-01-14T02:18:02.802Z,18.27
2019-01-14T02:20:32.150Z,14.23
2019-01-14T02:23:01.570Z,14.60
2019-01-14T02:25:31.019Z,8.30
2019-01-14T02:28:00.356Z,12.37
2019-01-14T02:30:29.875Z,15.50
2019-01-14T02:32:59.390Z,12.80
2019-01-14T02:35:28.826Z,15.10
2019-01-14T02:37:58.229Z,13.13
2019-01-14T02:40:27.762Z,9.57
2019-01-14T02:42:57.075Z,10.13
2019-01-14T02:45:26.515Z,17.60
2019-01-14T02:47:56.018Z,12.33
2019-01-14T02:50:25.585Z,14.37
2019-01-14T02:52:55.002Z,10.37
2019-01-14T02:55:24.381Z,10.30
2019-01-14T02:57:53.745Z,14.17
2019-01-14T03:00:25.729Z,10.40
2019-01-14T03:02:55.164Z,11.30
2019-01-14T03:05:24.610Z,12.80
2019-01-14T03:07:53.953Z,9.43
2019-01-14T03:10:23.330Z,5.40
2019-01-14T03:12:52.694Z,11.13
2019-01-14T03:15:22.183Z,9.70
2019-01-14T03:17:51.659Z,7.93
2019-01-14T03:20:20.981Z,12.80
2019-01-14T03:22:50.430Z,8.53
2019-01-14T03:25:19.834Z,15.00
2019-01-14T03:27:49.392Z,9.20
2019-01-14T03:30:19.990Z,10.23
2019-01-14T03:32:49.623Z,9.40
2019-01-14T03:35:19.028Z,9.97
2019-01-14T03:37:48.482Z,7.17
2019-01-14T03:40:18.609Z,8.50
2019-01-14T03:42:47.960Z,2.50
2019-01-14T03:45:17.519Z,6.50
2019-01-14T03:47:47.001Z,4.67
2019-01-14T03:50:22.074Z,7.10
2019-01-14T03:52:51.440Z,6.37
2019-01-14T03:55:20.808Z,10.13
2019-01-14T03:57:52.740Z,8.87
2019-01-14T04:00:22.151Z,3.97
2019-01-14T04:02:51.668Z,5.77
2019-01-14T04:05:21.095Z,6.57
2019-01-14T04:07:50.559Z,5.33
2019-01-14T04:10:19.987Z,3.53
2019-01-14T04:12:49.575Z,2.83
2019-01-14T04:15:20.326Z,3.93
2019-01-14T04:17:49.752Z,3.13
2019-01-14T04:20:19.987Z,3.97
2019-01-14T04:22:49.443Z,4.87
2019-01-14T04:25:19.239Z,4.67
2019-01-14T04:27:48.690Z,4.70
2019-01-14T04:30:20.595Z,4.93
2019-01-14T04:32:50.426Z,8.73
2019-01-14T04:35:20.978Z,5.30
2019-01-14T04:37:50.554Z,7.20
2019-01-14T04:40:22.487Z,5.93
2019-01-14T04:42:51.902Z,6.97
2019-01-14T04:45:21.218Z,9.53
2019-01-14T04:47:50.616Z,3.73
2019-01-14T04:50:22.244Z,6.30
2019-01-14T04:52:52.296Z,11.00
2019-01-14T04:55:21.846Z,5.90
2019-01-14T04:57:51.191Z,7.23
2019-01-14T05:00:22.988Z,20.67
2019-01-14T05:02:52.363Z,14.40
2019-01-14T05:05:22.132Z,7.80
2019-01-14T05:07:51.476Z,11.47
2019-01-14T05:10:21.740Z,8.83
2019-01-14T05:12:51.301Z,14.53
2019-01-14T05:15:20.666Z,7.63
2019-01-14T05:17:50.205Z,7.93
2019-01-14T05:20:22.177Z,5.63
2019-01-14T05:22:51.769Z,5.10
2019-01-14T05:25:21.309Z,2.70
2019-01-14T05:27:50.735Z,5.03
2019-01-14T05:30:20.433Z,4.27
2019-01-14T05:32:49.950Z,2.87
2019-01-14T05:35:19.699Z,16.33
2019-01-14T05:37:49.139Z,5.27
2019-01-14T05:40:24.798Z,4.47
2019-01-14T05:42:54.299Z,9.73
2019-01-14T05:45:23.654Z,6.67
2019-01-14T05:47:53.108Z,6.90
2019-01-14T05:50:22.606Z,3.77
2019-01-14T05:52:52.092Z,4.70
2019-01-14T05:55:21.538Z,8.00
2019-01-14T05:57:50.916Z,5.13
2019-01-14T06:00:33.183Z,9.40
2019-01-14T06:03:02.571Z,11.67
2019-01-14T06:05:32.023Z,8.70
2019-01-14T06:08:01.394Z,9.77
2019-01-14T06:10:30.691Z,4.17
2019-01-14T06:13:00.053Z,8.63
2019-01-14T06:15:29.427Z,2.53
2019-01-14T06:17:58.888Z,2.17
2019-01-14T06:20:29.355Z,3.43
2019-01-14T06:22:58.703Z,7.67
2019-01-14T06:25:27.994Z,3.77
2019-01-14T06:27:57.334Z,7.70
2019-01-14T06:30:28.283Z,8.30
2019-01-14T06:32:57.641Z,6.83
2019-01-14T06:35:27.198Z,17.03
2019-01-14T06:37:56.529Z,13.87
2019-01-14T06:40:26.016Z,21.57
2019-01-14T06:42:55.489Z,4.73
2019-01-14T06:45:24.906Z,4.33
2019-01-14T06:47:54.254Z,5.23
2019-01-14T06:50:23.619Z,7.63
2019-01-14T06:52:52.918Z,4.57
2019-01-14T06:55:22.282Z,5.00
2019-01-14T06:57:51.610Z,6.30
2019-01-14T07:00:23.674Z,4.13
2019-01-14T07:02:54.293Z,12.13
2019-01-14T07:05:24.181Z,4.23
2019-01-14T07:07:59.610Z,4.93
2019-01-14T07:10:35.400Z,2.40
2019-01-14T07:13:04.737Z,6.47
2019-01-14T07:15:34.274Z,5.37
2019-01-14T07:18:03.746Z,6.87
2019-01-14T07:20:33.055Z,8.33
2019-01-14T07:23:02.475Z,4.70
2019-01-14T07:25:31.729Z,6.93
2019-01-14T07:28:01.350Z,10.80
2019-01-14T07:30:30.895Z,9.07
2019-01-14T07:33:00.337Z,8.30
2019-01-14T07:35:29.738Z,8.67
2019-01-14T07:37:59.114Z,5.97
2019-01-14T07:40:28.799Z,7.87
2019-01-14T07:42:58.362Z,4.07
2019-01-14T07:45:27.651Z,2.87
2019-01-14T07:47:57.035Z,1.83
2019-01-14T07:50:26.322Z,5.37
2019-01-14T07:52:55.725Z,5.73
2019-01-14T07:55:25.302Z,4.43
2019-01-14T07:57:54.670Z,5.63
2019-01-14T08:00:26.063Z,4.50
2019-01-14T08:02:55.684Z,2.17
2019-01-14T08:05:25.005Z,3.20
2019-01-14T08:07:54.302Z,3.03
2019-01-14T08:10:23.696Z,6.13
2019-01-14T08:12:53.055Z,4.30
2019-01-14T08:15:23.266Z,3.03
2019-01-14T08:17:52.589Z,5.03
2019-01-14T08:20:22.245Z,4.00
2019-01-14T08:22:51.668Z,3.03
2019-01-14T08:25:20.954Z,2.17
2019-01-14T08:27:50.371Z,5.13
2019-01-14T08:30:22.037Z,6.60
2019-01-14T08:32:51.860Z,3.03
2019-01-14T08:35:21.470Z,8.20
2019-01-14T08:37:51.123Z,7.63
2019-01-14T08:40:20.513Z,5.03
2019-01-14T08:42:50.070Z,4.80
2019-01-14T08:45:19.448Z,4.23
2019-01-14T08:47:49.078Z,3.40
2019-01-14T08:50:20.483Z,2.60
2019-01-14T08:52:50.450Z,4.97
2019-01-14T08:55:20.033Z,5.63
2019-01-14T08:57:54.509Z,3.00
2019-01-14T09:00:22.829Z,5.60
2019-01-14T09:02:52.398Z,3.00
2019-01-14T09:05:21.976Z,3.10
2019-01-14T09:07:52.374Z,7.73
2019-01-14T09:10:26.454Z,2.40
2019-01-14T09:12:56.017Z,5.13
2019-01-14T09:15:25.455Z,8.70
2019-01-14T09:18:02.385Z,4.80
2019-01-14T09:20:26.253Z,7.70
2019-01-14T09:22:55.549Z,3.27
2019-01-14T09:25:24.873Z,5.97
2019-01-14T09:27:54.381Z,6.23
2019-01-14T09:30:25.815Z,3.83
2019-01-14T09:32:55.294Z,6.10
2019-01-14T09:35:24.717Z,2.23
2019-01-14T09:37:54.290Z,3.20
2019-01-14T09:40:25.094Z,2.87
2019-01-14T09:42:54.381Z,2.53
2019-01-14T09:45:23.825Z,2.20
2019-01-14T09:47:53.162Z,3.50
2019-01-14T09:50:22.509Z,4.93
2019-01-14T09:52:51.861Z,7.27
2019-01-14T09:55:21.175Z,4.20
2019-01-14T09:57:50.662Z,2.50
2019-01-14T10:00:20.077Z,4.13
2019-01-14T10:02:49.606Z,3.20
2019-01-14T10:05:20.247Z,3.47
2019-01-14T10:07:49.878Z,9.07
2019-01-14T10:10:20.117Z,2.87
2019-01-14T10:12:49.431Z,10.13
2019-01-14T10:15:21.098Z,5.40
2019-01-14T10:17:55.807Z,5.50
2019-01-14T10:20:25.157Z,3.50
2019-01-14T10:22:54.566Z,3.77
2019-01-14T10:25:25.131Z,4.50
2019-01-14T10:27:54.461Z,4.30
2019-01-14T10:30:23.911Z,2.10
2019-01-14T10:32:53.297Z,2.80
2019-01-14T10:35:22.930Z,5.93
2019-01-14T10:37:52.284Z,6.37
2019-01-14T10:40:21.769Z,4.50
2019-01-14T10:42:51.271Z,3.93
2019-01-14T10:45:22.273Z,4.60
2019-01-14T10:47:51.650Z,11.53
2019-01-14T10:50:21.219Z,6.17
2019-01-14T10:52:50.689Z,4.60
2019-01-14T10:55:20.040Z,8.80
2019-01-14T10:57:49.678Z,5.37
2019-01-14T11:00:24.353Z,2.13
2019-01-14T11:02:54.166Z,2.67
2019-01-14T11:05:26.969Z,6.03
2019-01-14T11:07:56.923Z,3.03
2019-01-14T11:10:26.286Z,3.83
2019-01-14T11:12:55.634Z,2.00
2019-01-14T11:15:25.234Z,6.40
2019-01-14T11:17:54.678Z,4.50
2019-01-14T11:20:31.522Z,3.07
2019-01-14T11:23:01.776Z,2.60
2019-01-14T11:25:31.306Z,3.57
2019-01-14T11:28:00.821Z,2.73
2019-01-14T11:30:32.218Z,1.97
2019-01-14T11:33:01.595Z,4.93
2019-01-14T11:35:31.026Z,6.63
2019-01-14T11:38:00.361Z,1.87
2019-01-14T11:40:36.021Z,3.10
2019-01-14T11:43:05.559Z,3.80
2019-01-14T11:45:34.938Z,6.40
2019-01-14T11:48:04.591Z,1.90
2019-01-14T11:50:34.110Z,5.83
2019-01-14T11:53:03.517Z,6.67
2019-01-14T11:55:33.020Z,2.57
2019-01-14T11:58:02.421Z,1.53
2019-01-14T12:00:36.556Z,4.03
2019-01-14T12:03:02.924Z,4.33
2019-01-14T12:05:32.363Z,6.93
2019-01-14T12:08:01.883Z,3.27
2019-01-14T12:10:31.324Z,2.70
2019-01-14T12:13:00.668Z,3.80
2019-01-14T12:15:30.126Z,3.40
2019-01-14T12:17:59.675Z,3.13
2019-01-14T12:20:29.163Z,3.17
2019-01-14T12:22:58.914Z,1.60
2019-01-14T12:25:28.370Z,2.90
2019-01-14T12:27:57.779Z,6.60
2019-01-14T12:30:50.827Z,2.80
2019-01-14T12:33:20.387Z,4.63
2019-01-14T12:35:49.973Z,1.80
2019-01-14T12:38:19.404Z,1.50
2019-01-14T12:40:49.026Z,4.40
2019-01-14T12:43:18.438Z,3.43
2019-01-14T12:45:47.766Z,4.10
2019-01-14T12:48:17.213Z,1.70
2019-01-14T12:50:46.669Z,1.33
2019-01-14T12:53:16.171Z,4.57
2019-01-14T12:55:45.541Z,2.90
2019-01-14T12:58:14.885Z,3.77
2019-01-14T13:00:44.344Z,4.07
2019-01-14T13:03:13.674Z,7.03
2019-01-14T13:05:43.037Z,2.50
2019-01-14T13:08:12.392Z,1.40
2019-01-14T13:10:41.983Z,1.87
2019-01-14T13:13:11.392Z,3.70
2019-01-14T13:15:40.771Z,4.23
2019-01-14T13:18:10.109Z,2.50
2019-01-14T13:20:39.561Z,4.37
2019-01-14T13:23:08.939Z,5.03
2019-01-14T13:25:38.297Z,4.43
2019-01-14T13:28:08.025Z,4.93
2019-01-14T13:30:37.412Z,5.50
2019-01-14T13:33:06.901Z,5.47
2019-01-14T13:35:36.273Z,6.23
2019-01-14T13:38:05.630Z,3.80
2019-01-14T13:40:35.474Z,3.70
2019-01-14T13:43:04.835Z,3.67
2019-01-14T13:45:34.226Z,3.67
2019-01-14T13:48:03.791Z,2.77
2019-01-14T13:50:33.181Z,10.70
2019-01-14T13:53:02.598Z,12.67
2019-01-14T13:55:31.950Z,2.00
2019-01-14T13:58:01.406Z,1.37
2019-01-14T14:00:30.783Z,4.70
2019-01-14T14:03:00.353Z,5.63
2019-01-14T14:05:29.759Z,1.43
2019-01-14T14:08:08.202Z,7.50
2019-01-14T14:10:37.570Z,2.50
2019-01-14T14:13:06.966Z,1.37
2019-01-14T14:15:36.343Z,1.60
2019-01-14T14:18:06.260Z,4.33
2019-01-14T14:20:35.582Z,11.47
2019-01-14T14:23:05.343Z,3.93
2019-01-14T14:25:34.698Z,5.57
2019-01-14T14:28:04.465Z,18.20
2019-01-14T14:30:43.104Z,4.73
2019-01-14T14:33:12.546Z,13.03
2019-01-14T14:35:42.000Z,22.97
2019-01-14T14:38:11.757Z,2.97
2019-01-14T14:40:41.140Z,5.67
2019-01-14T14:43:10.722Z,3.90
2019-01-14T14:45:40.054Z,4.90
2019-01-14T14:48:09.963Z,4.70
2019-01-14T14:50:39.480Z,14.97
2019-01-14T14:53:08.862Z,10.57
2019-01-14T14:55:38.251Z,6.03
2019-01-14T14:58:07.577Z,2.47
2019-01-14T15:00:37.038Z,5.33
2019-01-14T15:03:06.329Z,10.67
2019-01-14T15:05:35.914Z,15.73
2019-01-14T15:08:05.837Z,12.50
2019-01-14T15:10:35.387Z,5.67
2019-01-14T15:13:05.143Z,6.97
2019-01-14T15:15:34.842Z,5.87
2019-01-14T15:18:04.623Z,8.17
2019-01-14T15:20:33.968Z,8.07
2019-01-14T15:23:03.707Z,19.17
2019-01-14T15:25:33.202Z,9.73
2019-01-14T15:28:02.726Z,7.10
2019-01-14T15:30:32.786Z,21.73
2019-01-14T15:33:02.215Z,7.27
2019-01-14T15:35:31.992Z,32.53
2019-01-14T15:38:01.460Z,13.40
2019-01-14T15:40:30.816Z,14.57
2019-01-14T15:43:00.270Z,14.20
2019-01-14T15:45:29.741Z,6.23
2019-01-14T15:47:59.155Z,17.10
2019-01-14T15:50:28.602Z,9.77
2019-01-14T15:52:58.041Z,12.07
2019-01-14T15:55:29.322Z,7.23
2019-01-14T15:57:58.733Z,7.33
2019-01-14T16:00:28.073Z,9.47
2019-01-14T16:02:57.575Z,6.30
2019-01-14T16:05:27.186Z,4.53
2019-01-14T16:07:56.602Z,12.60
2019-01-14T16:10:26.932Z,8.93
2019-01-14T16:12:56.360Z,9.93
2019-01-14T16:15:26.215Z,8.30
2019-01-14T16:17:55.652Z,7.13
2019-01-14T16:20:26.458Z,7.50
2019-01-14T16:22:56.182Z,9.07
2019-01-14T16:25:25.649Z,9.77
2019-01-14T16:27:55.075Z,4.93
2019-01-14T16:30:26.650Z,8.40
2019-01-14T16:32:56.102Z,5.37
2019-01-14T16:35:25.593Z,5.80
2019-01-14T16:37:55.127Z,10.33
2019-01-14T16:40:24.937Z,5.30
2019-01-14T16:42:54.359Z,10.80
2019-01-14T16:45:28.230Z,11.77
2019-01-14T16:47:57.672Z,6.13
2019-01-14T16:50:27.200Z,11.23
2019-01-14T16:52:56.654Z,13.97
2019-01-14T16:55:47.589Z,7.27
2019-01-14T16:58:17.315Z,8.40
2019-01-14T17:00:46.800Z,4.33
2019-01-14T17:03:16.208Z,9.20
2019-01-14T17:05:45.598Z,11.03
2019-01-14T17:08:15.047Z,13.17
2019-01-14T17:10:44.713Z,7.07
2019-01-14T17:13:14.142Z,5.37
2019-01-14T17:15:43.594Z,12.77
2019-01-14T17:18:12.991Z,7.50
2019-01-14T17:20:42.591Z,6.80
2019-01-14T17:23:12.081Z,6.10
2019-01-14T17:25:41.531Z,5.17
2019-01-14T17:28:10.983Z,5.93
2019-01-14T17:30:40.310Z,17.97
2019-01-14T17:33:09.723Z,10.03
2019-01-14T17:35:41.493Z,11.63
2019-01-14T17:38:10.910Z,14.47
2019-01-14T17:40:40.684Z,12.07
2019-01-14T17:43:10.097Z,6.20
2019-01-14T17:45:39.557Z,7.07
2019-01-14T17:48:08.887Z,14.63
2019-01-14T17:50:38.302Z,16.67
2019-01-14T17:53:10.856Z,4.23
2019-01-14T17:55:40.134Z,8.93
2019-01-14T17:58:09.624Z,6.37
2019-01-14T18:00:39.268Z,5.20
2019-01-14T18:03:08.869Z,10.13
2019-01-14T18:05:38.297Z,5.00
2019-01-14T18:08:07.705Z,2.03
2019-01-14T18:10:40.142Z,5.00
2019-01-14T18:13:08.381Z,3.57
2019-01-14T18:15:37.740Z,10.40
2019-01-14T18:18:07.127Z,7.67
2019-01-14T18:20:36.658Z,11.63
2019-01-14T18:23:06.024Z,11.77
2019-01-14T18:25:35.458Z,8.80
2019-01-14T18:28:05.053Z,9.70
2019-01-14T18:30:34.547Z,8.50
2019-01-14T18:33:03.955Z,10.33
2019-01-14T18:35:33.396Z,17.90
2019-01-14T18:38:02.870Z,12.77
2019-01-14T18:40:33.987Z,7.30
2019-01-14T18:43:03.346Z,9.87
2019-01-14T18:45:32.699Z,9.27
2019-01-14T18:48:02.154Z,6.70
2019-01-14T18:50:31.593Z,5.17
2019-01-14T18:53:02.083Z,11.80
2019-01-14T18:55:31.466Z,8.27
2019-01-14T18:58:00.894Z,4.83
2019-01-14T19:00:30.298Z,7.20
2019-01-14T19:02:59.646Z,9.37
2019-01-14T19:05:29.030Z,6.60
2019-01-14T19:07:58.492Z,5.17
2019-01-14T19:10:27.848Z,10.77
2019-01-14T19:12:57.314Z,14.17
2019-01-14T19:15:26.647Z,15.80
2019-01-14T19:17:56.063Z,10.40
2019-01-14T19:20:27.755Z,14.70
2019-01-14T19:22:57.493Z,15.93
2019-01-14T19:25:27.359Z,7.67
2019-01-14T19:27:56.909Z,14.90
2019-01-14T19:30:26.384Z,5.97
2019-01-14T19:32:55.747Z,14.07
2019-01-14T19:35:25.522Z,13.07
2019-01-14T19:37:55.158Z,14.97
2019-01-14T19:40:24.832Z,15.03
2019-01-14T19:42:54.271Z,13.73
2019-01-14T19:45:25.671Z,19.60
2019-01-14T19:47:55.071Z,14.50
2019-01-14T19:50:25.160Z,8.77
2019-01-14T19:53:06.507Z,14.23
2019-01-14T19:55:35.979Z,14.40
2019-01-14T19:58:05.622Z,11.93
2019-01-14T20:00:35.036Z,21.53
2019-01-14T20:03:04.474Z,11.60
2019-01-14T20:05:33.989Z,29.73
2019-01-14T20:08:04.218Z,18.00
2019-01-14T20:10:33.636Z,13.20
2019-01-14T20:13:02.972Z,14.03
2019-01-14T20:15:32.577Z,11.73
2019-01-14T20:18:03.101Z,10.00
2019-01-14T20:20:32.515Z,11.93
2019-01-14T20:23:01.979Z,17.47
2019-01-14T20:25:31.558Z,16.63
2019-01-14T20:28:00.955Z,17.77
2019-01-14T20:30:30.315Z,16.63
2019-01-14T20:33:00.831Z,10.40
2019-01-14T20:35:30.247Z,13.20
2019-01-14T20:37:59.687Z,18.27
2019-01-14T20:40:29.172Z,25.27
2019-01-14T20:42:58.718Z,12.50
2019-01-14T20:45:28.056Z,11.23
2019-01-14T20:47:57.538Z,17.23
2019-01-14T20:50:26.978Z,12.23
2019-01-14T20:52:56.425Z,9.80
2019-01-14T20:55:25.806Z,23.73
2019-01-14T20:57:55.438Z,9.83
2019-01-14T21:00:25.864Z,9.90
2019-01-14T21:02:55.498Z,16.93
2019-01-14T21:05:26.059Z,10.13
2019-01-14T21:07:55.557Z,17.50
2019-01-14T21:10:24.939Z,9.97
2019-01-14T21:12:54.436Z,13.93
2019-01-14T21:15:23.546Z,13.23
2019-01-14T21:17:52.786Z,18.70
2019-01-14T21:20:25.692Z,14.10
2019-01-14T21:22:57.871Z,17.10
2019-01-14T21:25:27.062Z,10.23
2019-01-14T21:27:56.325Z,17.10
2019-01-14T21:30:27.445Z,11.60
2019-01-14T21:32:56.731Z,23.83
2019-01-14T21:35:26.024Z,20.53
2019-01-14T21:37:57.234Z,9.70
2019-01-14T21:40:26.521Z,17.73
2019-01-14T21:42:58.535Z,12.13
2019-01-14T21:45:27.766Z,9.17
2019-01-14T21:47:57.057Z,5.83
2019-01-14T21:50:26.222Z,8.63
2019-01-14T21:52:55.470Z,7.03
2019-01-14T21:55:25.794Z,21.77
2019-01-14T21:57:55.000Z,15.20
2019-01-14T22:00:25.118Z,19.77
2019-01-14T22:02:54.361Z,17.60
2019-01-14T22:05:23.601Z,14.10
2019-01-14T22:07:52.804Z,14.67
2019-01-14T22:10:24.439Z,19.63
2019-01-14T22:12:53.674Z,10.63
2019-01-14T22:15:22.803Z,10.27
2019-01-14T22:17:52.026Z,5.93
2019-01-14T22:20:26.528Z,10.03
2019-01-14T22:22:55.850Z,10.97
2019-01-14T22:25:25.211Z,15.97
2019-01-14T22:27:54.442Z,14.80
2019-01-14T22:30:28.962Z,8.17
2019-01-14T22:32:58.136Z,10.03
2019-01-14T22:35:27.911Z,11.97
2019-01-14T22:37:57.087Z,22.90
2019-01-14T22:40:26.238Z,6.10
2019-01-14T22:42:55.447Z,5.73
2019-01-14T22:45:24.618Z,11.80
2019-01-14T22:47:53.762Z,10.30
2019-01-14T22:50:22.909Z,7.87
2019-01-14T22:52:52.002Z,11.67
2019-01-14T22:55:21.159Z,12.20
2019-01-14T22:57:50.289Z,7.40
2019-01-14T23:00:27.793Z,8.00
2019-01-14T23:02:57.194Z,8.97
2019-01-14T23:05:26.620Z,9.97
2019-01-14T23:07:56.062Z,10.53
2019-01-14T23:10:25.378Z,11.23
2019-01-14T23:12:54.866Z,11.77
2019-01-14T23:15:24.214Z,9.90
2019-01-14T23:17:53.670Z,11.03
2019-01-14T23:20:23.003Z,9.00
2019-01-14T23:22:52.436Z,15.13
2019-01-14T23:25:21.765Z,16.03
2019-01-14T23:27:51.206Z,12.47
2019-01-14T23:30:20.480Z,11.50
2019-01-14T23:32:50.025Z,12.10
2019-01-14T23:35:19.425Z,25.50
2019-01-14T23:37:48.905Z,11.53
2019-01-14T23:40:18.265Z,9.47
2019-01-14T23:42:47.795Z,13.47
2019-01-14T23:45:17.233Z,16.67
2019-01-14T23:47:46.725Z,21.13
2019-01-14T23:50:16.210Z,10.77
2019-01-14T23:52:45.538Z,20.00
2019-01-14T23:55:15.146Z,21.17
2019-01-14T23:57:44.550Z,13.23
